Terminal Aerodrome Forecast
Issued by NWS

Home | Current Version | Previous Version | Text Only | Print | Product List | Glossary On
Versions: 1 2 3 4 5 6 7 8 9 10 11 12
368
FTUS42 TJSJ 081120
TAFJPS
TAF
TJPS 081120Z 0812/0912 05005KT P6SM SKC
     FM081300 13010G18KT P6SM FEW030 SCT060
     FM082300 05005KT P6SM FEW030
      AMD NOT SKED 0812/0903=

USA.gov is the U.S. government's official web portal to all federal, state and local government web resources and services.